createdAt,value
2023-02-04T00:02:05.890Z,18.75
2023-02-04T00:04:32.374Z,18.90
2023-02-04T00:06:58.895Z,18.15
2023-02-04T00:09:25.430Z,18.98
2023-02-04T00:11:51.910Z,18.08
2023-02-04T00:14:18.422Z,18.85
2023-02-04T00:16:44.950Z,17.13
2023-02-04T00:19:11.476Z,16.65
2023-02-04T00:21:38.045Z,17.55
2023-02-04T00:24:04.611Z,16.85
2023-02-04T00:26:31.120Z,16.73
2023-02-04T00:28:57.655Z,16.15
2023-02-04T00:31:24.533Z,16.48
2023-02-04T00:33:51.113Z,16.23
2023-02-04T00:36:17.734Z,16.05
2023-02-04T00:38:44.414Z,15.27
2023-02-04T00:41:11.769Z,16.25
2023-02-04T00:43:38.251Z,15.75
2023-02-04T00:46:05.003Z,14.75
2023-02-04T00:48:31.516Z,14.70
2023-02-04T00:50:58.030Z,15.85
2023-02-04T00:53:24.580Z,14.57
2023-02-04T00:55:51.112Z,14.48
2023-02-04T00:58:17.621Z,14.18
2023-02-04T01:00:44.154Z,14.57
2023-02-04T01:03:10.741Z,14.10
2023-02-04T01:05:37.324Z,14.18
2023-02-04T01:08:04.001Z,13.77
2023-02-04T01:10:31.098Z,12.43
2023-02-04T01:12:57.884Z,13.50
2023-02-04T01:15:24.423Z,13.68
2023-02-04T01:17:50.918Z,13.43
2023-02-04T01:20:17.710Z,12.48
2023-02-04T01:22:44.211Z,13.48
2023-02-04T01:25:10.754Z,11.80
2023-02-04T01:27:37.237Z,12.77
2023-02-04T01:30:06.154Z,13.20
2023-02-04T01:32:32.645Z,12.30
2023-02-04T01:34:59.198Z,12.52
2023-02-04T01:37:25.794Z,11.88
2023-02-04T01:39:52.386Z,11.90
2023-02-04T01:42:19.093Z,12.02
2023-02-04T01:44:46.179Z,11.85
2023-02-04T01:47:12.816Z,10.90
2023-02-04T01:49:39.643Z,12.05
2023-02-04T01:52:06.262Z,11.82
2023-02-04T01:54:32.793Z,11.77
2023-02-04T01:56:59.321Z,11.73
2023-02-04T01:59:26.896Z,11.98
2023-02-04T02:01:54.612Z,11.32
2023-02-04T02:04:29.166Z,10.93
2023-02-04T02:06:59.004Z,10.27
2023-02-04T02:09:27.114Z,10.57
2023-02-04T02:11:53.776Z,10.18
2023-02-04T02:14:20.674Z,10.13
2023-02-04T02:16:47.292Z,10.10
2023-02-04T02:19:19.966Z,10.07
2023-02-04T02:22:03.553Z,10.48
2023-02-04T02:24:32.914Z,9.48
2023-02-04T02:27:08.399Z,9.20
2023-02-04T02:29:35.971Z,10.07
2023-02-04T02:32:02.611Z,9.90
2023-02-04T02:34:30.268Z,10.77
2023-02-04T02:36:59.370Z,9.38
2023-02-04T02:39:26.581Z,8.90
2023-02-04T02:41:53.902Z,9.70
2023-02-04T02:44:20.890Z,9.52
2023-02-04T02:46:47.432Z,9.00
2023-02-04T02:49:16.950Z,9.40
2023-02-04T02:51:44.350Z,9.10
2023-02-04T02:54:24.300Z,8.65
2023-02-04T02:56:51.703Z,8.77
2023-02-04T02:59:18.652Z,8.25
2023-02-04T03:01:48.697Z,8.30
2023-02-04T03:04:15.634Z,9.13
2023-02-04T03:06:42.195Z,8.73
2023-02-04T03:09:08.738Z,8.30
2023-02-04T03:11:35.298Z,8.55
2023-02-04T03:14:02.910Z,8.77
2023-02-04T03:16:32.939Z,7.72
2023-02-04T03:19:04.976Z,8.25
2023-02-04T03:21:31.702Z,8.02
2023-02-04T03:23:58.407Z,7.82
2023-02-04T03:26:25.985Z,8.13
2023-02-04T03:28:55.457Z,7.45
2023-02-04T03:31:22.161Z,8.02
2023-02-04T03:33:48.800Z,7.43
2023-02-04T03:36:15.291Z,7.68
2023-02-04T03:38:41.931Z,7.35
2023-02-04T03:41:08.633Z,6.93
2023-02-04T03:43:35.188Z,7.68
2023-02-04T03:46:01.909Z,6.78
2023-02-04T03:48:28.430Z,7.38
2023-02-04T03:50:54.907Z,6.93
2023-02-04T03:53:22.139Z,6.90
2023-02-04T03:55:48.641Z,6.78
2023-02-04T03:58:15.285Z,6.82
2023-02-04T04:00:41.941Z,7.05
2023-02-04T04:03:08.734Z,6.68
2023-02-04T04:05:35.511Z,6.82
2023-02-04T04:08:02.179Z,6.47
2023-02-04T04:10:32.156Z,6.43
2023-02-04T04:12:58.850Z,6.90
2023-02-04T04:15:25.494Z,5.75
2023-02-04T04:17:52.010Z,6.70
2023-02-04T04:20:18.741Z,6.13
2023-02-04T04:22:46.003Z,6.18
2023-02-04T04:25:12.634Z,5.68
2023-02-04T04:27:39.185Z,6.38
2023-02-04T04:30:06.070Z,5.82
2023-02-04T04:32:32.628Z,5.40
2023-02-04T04:34:59.140Z,6.40
2023-02-04T04:37:25.619Z,5.13
2023-02-04T04:39:52.128Z,5.68
2023-02-04T04:42:18.636Z,6.00
2023-02-04T04:44:45.157Z,5.63
2023-02-04T04:47:11.654Z,5.40
2023-02-04T04:49:38.216Z,5.60
2023-02-04T04:52:04.979Z,5.38
2023-02-04T04:54:31.492Z,4.88
2023-02-04T04:56:57.998Z,5.35
2023-02-04T04:59:24.715Z,5.30
2023-02-04T05:01:51.186Z,5.18
2023-02-04T05:04:17.675Z,5.28
2023-02-04T05:06:45.079Z,5.20
2023-02-04T05:09:11.608Z,5.32
2023-02-04T05:11:38.121Z,5.30
2023-02-04T05:14:05.183Z,5.00
2023-02-04T05:16:31.779Z,5.25
2023-02-04T05:18:58.324Z,4.97
2023-02-04T05:21:24.895Z,4.78
2023-02-04T05:23:51.399Z,4.40
2023-02-04T05:26:29.457Z,5.28
2023-02-04T05:28:56.934Z,4.97
2023-02-04T05:31:23.575Z,4.47
2023-02-04T05:33:50.157Z,5.00
2023-02-04T05:36:17.780Z,4.90
2023-02-04T05:38:44.311Z,5.03
2023-02-04T05:41:10.793Z,3.95
2023-02-04T05:43:37.302Z,4.30
2023-02-04T05:46:04.294Z,4.25
2023-02-04T05:48:30.929Z,3.80
2023-02-04T05:50:57.476Z,4.38
2023-02-04T05:53:26.043Z,4.07
2023-02-04T05:55:52.796Z,4.43
2023-02-04T05:58:19.331Z,4.13
2023-02-04T06:00:45.949Z,4.68
2023-02-04T06:03:14.439Z,3.97
2023-02-04T06:05:41.377Z,3.88
2023-02-04T06:08:07.946Z,3.75
2023-02-04T06:10:34.561Z,4.00
2023-02-04T06:13:01.180Z,3.90
2023-02-04T06:15:27.656Z,3.88
2023-02-04T06:17:54.250Z,4.10
2023-02-04T06:20:20.797Z,3.95
2023-02-04T06:22:47.650Z,3.42
2023-02-04T06:25:14.267Z,3.65
2023-02-04T06:27:40.852Z,3.60
2023-02-04T06:30:07.958Z,3.38
2023-02-04T06:32:34.457Z,3.60
2023-02-04T06:35:00.998Z,3.72
2023-02-04T06:37:27.528Z,3.67
2023-02-04T06:39:54.783Z,3.58
2023-02-04T06:42:21.395Z,3.60
2023-02-04T06:44:47.906Z,3.63
2023-02-04T06:47:14.437Z,3.25
2023-02-04T06:49:40.933Z,3.60
2023-02-04T06:52:07.426Z,3.67
2023-02-04T06:54:34.315Z,3.28
2023-02-04T06:57:06.572Z,3.20
2023-02-04T06:59:41.358Z,3.60
2023-02-04T07:02:08.098Z,4.38
2023-02-04T07:04:35.355Z,3.50
2023-02-04T07:07:01.945Z,3.35
2023-02-04T07:09:28.499Z,3.40
2023-02-04T07:11:55.027Z,3.58
2023-02-04T07:14:21.650Z,3.63
2023-02-04T07:16:48.190Z,3.53
2023-02-04T07:19:15.012Z,3.40
2023-02-04T07:21:41.580Z,3.90
2023-02-04T07:24:08.078Z,4.88
2023-02-04T07:26:34.583Z,4.10
2023-02-04T07:29:01.157Z,4.82
2023-02-04T07:31:27.808Z,4.07
2023-02-04T07:33:54.379Z,3.95
2023-02-04T07:36:21.016Z,4.20
2023-02-04T07:38:47.575Z,3.80
2023-02-04T07:41:14.162Z,3.67
2023-02-04T07:43:40.896Z,3.97
2023-02-04T07:46:07.445Z,3.60
2023-02-04T07:48:34.018Z,4.25
2023-02-04T07:51:00.595Z,4.22
2023-02-04T07:53:27.098Z,4.25
2023-02-04T07:55:53.908Z,4.00
2023-02-04T07:58:20.397Z,3.45
2023-02-04T08:00:46.959Z,4.43
2023-02-04T08:03:13.735Z,3.92
2023-02-04T08:05:40.300Z,4.97
2023-02-04T08:08:06.863Z,4.50
2023-02-04T08:10:33.812Z,3.85
2023-02-04T08:13:00.706Z,3.95
2023-02-04T08:15:27.218Z,4.03
2023-02-04T08:17:53.677Z,4.25
2023-02-04T08:20:20.285Z,4.85
2023-02-04T08:22:46.827Z,4.07
2023-02-04T08:25:13.354Z,3.90
2023-02-04T08:27:40.018Z,4.18
2023-02-04T08:30:07.305Z,4.28
2023-02-04T08:32:33.835Z,3.65
2023-02-04T08:35:00.962Z,3.50
2023-02-04T08:37:28.027Z,3.78
2023-02-04T08:39:54.635Z,4.25
2023-02-04T08:42:21.126Z,3.65
2023-02-04T08:44:47.651Z,3.38
2023-02-04T08:47:14.390Z,3.35
2023-02-04T08:49:40.894Z,3.70
2023-02-04T08:52:07.966Z,4.05
2023-02-04T08:54:35.215Z,3.75
2023-02-04T08:57:02.389Z,3.95
2023-02-04T08:59:29.226Z,3.38
2023-02-04T09:01:55.718Z,3.78
2023-02-04T09:04:23.828Z,3.47
2023-02-04T09:06:50.963Z,3.72
2023-02-04T09:09:17.932Z,3.90
2023-02-04T09:11:44.508Z,4.03
2023-02-04T09:14:11.466Z,3.67
2023-02-04T09:16:37.967Z,4.18
2023-02-04T09:19:04.741Z,3.80
2023-02-04T09:21:31.760Z,3.65
2023-02-04T09:23:58.273Z,3.55
2023-02-04T09:26:24.830Z,3.40
2023-02-04T09:28:51.512Z,3.90
2023-02-04T09:31:18.875Z,3.55
2023-02-04T09:33:45.501Z,3.58
2023-02-04T09:36:12.040Z,3.72
2023-02-04T09:38:38.553Z,3.95
2023-02-04T09:41:08.490Z,3.95
2023-02-04T09:43:37.321Z,3.97
2023-02-04T09:46:04.215Z,3.50
2023-02-04T09:48:31.075Z,3.92
2023-02-04T09:51:05.177Z,4.03
2023-02-04T09:53:32.257Z,3.47
2023-02-04T09:55:58.939Z,4.05
2023-02-04T09:58:28.647Z,3.45
2023-02-04T10:01:19.657Z,3.80
2023-02-04T10:03:48.320Z,3.58
2023-02-04T10:06:19.850Z,3.33
2023-02-04T10:08:48.486Z,3.97
2023-02-04T10:11:17.111Z,3.80
2023-02-04T10:13:54.954Z,4.15
2023-02-04T10:16:29.731Z,3.45
2023-02-04T10:19:02.728Z,3.80
2023-02-04T10:21:32.312Z,4.00
2023-02-04T10:24:02.552Z,3.72
2023-02-04T10:26:31.108Z,4.22
2023-02-04T10:29:02.214Z,3.80
2023-02-04T10:31:38.318Z,4.07
2023-02-04T10:34:18.621Z,4.05
2023-02-04T10:36:50.826Z,3.15
2023-02-04T10:39:22.931Z,4.40
2023-02-04T10:41:55.267Z,4.18
2023-02-04T10:44:31.271Z,3.67
2023-02-04T10:47:00.770Z,3.70
2023-02-04T10:49:27.588Z,4.07
2023-02-04T10:51:54.231Z,3.85
2023-02-04T10:54:30.580Z,3.95
2023-02-04T10:57:22.965Z,4.75
2023-02-04T10:59:57.081Z,4.15
2023-02-04T11:02:41.181Z,4.65
2023-02-04T11:07:38.323Z,5.28
2023-02-04T11:10:05.347Z,6.63
2023-02-04T11:12:55.271Z,8.07
2023-02-04T11:15:42.079Z,7.63
2023-02-04T11:18:19.445Z,7.95
2023-02-04T11:20:49.437Z,9.13
2023-02-04T11:23:28.406Z,8.65
2023-02-04T11:26:07.444Z,8.52
2023-02-04T11:28:44.802Z,8.73
2023-02-04T11:31:27.182Z,9.20
2023-02-04T11:34:23.999Z,8.77
2023-02-04T11:36:56.939Z,8.77
2023-02-04T11:39:29.253Z,8.32
2023-02-04T11:41:55.926Z,8.77
2023-02-04T11:44:23.109Z,8.18
2023-02-04T11:46:52.635Z,9.15
2023-02-04T11:49:20.729Z,9.00
2023-02-04T11:51:47.257Z,8.98
2023-02-04T11:54:18.899Z,10.20
2023-02-04T11:56:46.658Z,9.57
2023-02-04T11:59:14.462Z,8.70
2023-02-04T12:01:41.844Z,8.98
2023-02-04T12:04:22.691Z,10.13
2023-02-04T12:07:01.271Z,9.18
2023-02-04T12:09:29.962Z,8.93
2023-02-04T12:12:02.058Z,9.55
2023-02-04T12:14:34.074Z,8.30
2023-02-04T12:17:00.675Z,9.13
2023-02-04T12:19:28.203Z,9.38
2023-02-04T12:21:56.027Z,9.27
2023-02-04T12:24:22.564Z,8.98
2023-02-04T12:26:49.113Z,9.63
2023-02-04T12:29:15.764Z,9.63
2023-02-04T12:31:42.474Z,9.90
2023-02-04T12:34:09.092Z,9.48
2023-02-04T12:36:35.644Z,9.68
2023-02-04T12:39:03.113Z,8.85
2023-02-04T12:41:29.986Z,8.88
2023-02-04T12:43:56.537Z,9.35
2023-02-04T12:46:23.400Z,9.43
2023-02-04T12:48:50.175Z,9.73
2023-02-04T12:51:16.720Z,9.10
2023-02-04T12:53:43.214Z,8.85
2023-02-04T12:56:09.744Z,8.50
2023-02-04T12:58:36.246Z,8.63
2023-02-04T13:01:04.415Z,9.48
2023-02-04T13:03:31.913Z,8.52
2023-02-04T13:05:59.056Z,8.57
2023-02-04T13:08:25.548Z,8.27
2023-02-04T13:10:52.260Z,8.77
2023-02-04T13:13:20.096Z,7.82
2023-02-04T13:15:47.592Z,8.82
2023-02-04T13:18:16.561Z,8.98
2023-02-04T13:20:44.022Z,8.98
2023-02-04T13:23:10.548Z,8.05
2023-02-04T13:25:37.037Z,8.70
2023-02-04T13:28:03.706Z,8.45
2023-02-04T13:30:30.357Z,8.27
2023-02-04T13:32:56.943Z,7.50
2023-02-04T13:35:23.575Z,8.27
2023-02-04T13:37:50.112Z,9.63
2023-02-04T13:40:16.790Z,10.15
2023-02-04T13:42:43.347Z,10.85
2023-02-04T13:45:12.705Z,10.55
2023-02-04T13:47:39.700Z,12.43
2023-02-04T13:50:06.990Z,11.73
2023-02-04T13:52:34.484Z,12.13
2023-02-04T13:55:01.277Z,13.57
2023-02-04T13:57:28.138Z,12.80
2023-02-04T13:59:54.709Z,11.77
2023-02-04T14:02:23.574Z,12.88
2023-02-04T14:04:50.318Z,12.57
2023-02-04T14:07:17.090Z,12.35
2023-02-04T14:09:43.647Z,11.10
2023-02-04T14:12:10.546Z,11.32
2023-02-04T14:14:37.071Z,12.07
2023-02-04T14:17:04.351Z,12.45
2023-02-04T14:19:30.917Z,12.77
2023-02-04T14:21:58.437Z,11.30
2023-02-04T14:24:25.411Z,11.85
2023-02-04T14:26:52.157Z,12.82
2023-02-04T14:29:18.727Z,12.38
2023-02-04T14:31:45.360Z,11.07
2023-02-04T14:34:11.940Z,12.70
2023-02-04T14:36:38.550Z,12.20
2023-02-04T14:39:05.180Z,11.95
2023-02-04T14:41:31.754Z,12.32
2023-02-04T14:43:58.299Z,12.00
2023-02-04T14:46:24.902Z,12.10
2023-02-04T14:48:52.164Z,12.07
2023-02-04T14:51:19.598Z,11.43
2023-02-04T14:53:48.751Z,12.45
2023-02-04T14:56:15.901Z,12.07
2023-02-04T14:58:42.737Z,11.68
2023-02-04T15:01:09.484Z,11.80
2023-02-04T15:03:36.140Z,11.93
2023-02-04T15:06:02.725Z,11.82
2023-02-04T15:08:29.543Z,12.07
2023-02-04T15:10:56.128Z,13.10
2023-02-04T15:13:22.734Z,11.77
2023-02-04T15:15:49.357Z,12.85
2023-02-04T15:18:15.894Z,12.65
2023-02-04T15:20:42.438Z,14.30
2023-02-04T15:23:13.011Z,13.48
2023-02-04T15:25:40.220Z,12.38
2023-02-04T15:28:07.059Z,12.77
2023-02-04T15:30:34.016Z,12.88
2023-02-04T15:33:00.733Z,14.02
2023-02-04T15:35:27.254Z,13.05
2023-02-04T15:37:53.782Z,13.18
2023-02-04T15:40:20.519Z,13.60
2023-02-04T15:42:47.435Z,13.25
2023-02-04T15:45:13.962Z,13.05
2023-02-04T15:47:40.479Z,12.95
2023-02-04T15:50:09.063Z,13.02
2023-02-04T15:52:35.592Z,14.30
2023-02-04T15:55:02.086Z,13.43
2023-02-04T15:57:28.611Z,12.93
2023-02-04T15:59:55.159Z,12.90
2023-02-04T16:02:21.698Z,12.40
2023-02-04T16:04:48.293Z,12.98
2023-02-04T16:07:14.932Z,12.65
2023-02-04T16:09:41.467Z,13.88
2023-02-04T16:12:07.968Z,13.75
2023-02-04T16:14:34.590Z,13.57
2023-02-04T16:17:01.827Z,13.93
2023-02-04T16:19:29.137Z,13.98
2023-02-04T16:21:55.776Z,13.10
2023-02-04T16:24:22.604Z,13.48
2023-02-04T16:26:49.098Z,12.88
2023-02-04T16:29:16.578Z,13.02
2023-02-04T16:31:43.092Z,13.43
2023-02-04T16:34:09.658Z,13.35
2023-02-04T16:36:36.123Z,12.75
2023-02-04T16:39:02.926Z,13.13
2023-02-04T16:41:29.621Z,13.68
2023-02-04T16:43:56.190Z,13.50
2023-02-04T16:46:22.865Z,13.63
2023-02-04T16:48:49.442Z,14.00
2023-02-04T16:51:17.820Z,12.57
2023-02-04T16:53:44.342Z,12.63
2023-02-04T16:56:10.849Z,13.45
2023-02-04T16:58:38.397Z,13.85
2023-02-04T17:01:05.091Z,14.05
2023-02-04T17:03:31.818Z,14.27
2023-02-04T17:05:58.303Z,13.32
2023-02-04T17:08:24.826Z,13.07
2023-02-04T17:11:09.804Z,12.65
2023-02-04T17:13:36.389Z,13.63
2023-02-04T17:16:03.479Z,13.40
2023-02-04T17:18:31.114Z,13.52
2023-02-04T17:20:58.251Z,13.48
2023-02-04T17:23:25.636Z,13.70
2023-02-04T17:25:52.724Z,14.32
2023-02-04T17:28:19.384Z,13.63
2023-02-04T17:30:46.362Z,13.27
2023-02-04T17:33:12.928Z,13.73
2023-02-04T17:35:39.459Z,13.85
2023-02-04T17:38:06.016Z,13.52
2023-02-04T17:40:32.567Z,13.65
2023-02-04T17:42:59.210Z,13.25
2023-02-04T17:45:25.847Z,13.40
2023-02-04T17:47:52.440Z,13.57
2023-02-04T17:50:19.064Z,13.43
2023-02-04T17:52:45.579Z,13.20
2023-02-04T17:55:24.558Z,14.10
2023-02-04T17:57:51.801Z,12.02
2023-02-04T18:00:21.381Z,12.77
2023-02-04T18:02:50.248Z,13.32
2023-02-04T18:05:19.597Z,13.40
2023-02-04T18:08:15.703Z,12.88
2023-02-04T18:10:45.523Z,12.32
2023-02-04T18:13:12.083Z,12.80
2023-02-04T18:15:39.054Z,12.60
2023-02-04T18:18:21.506Z,11.95
2023-02-04T18:20:56.284Z,11.88
2023-02-04T18:23:22.989Z,12.55
2023-02-04T18:25:49.774Z,12.65
2023-02-04T18:28:19.125Z,13.00
2023-02-04T18:30:47.253Z,12.93
2023-02-04T18:33:14.167Z,11.90
2023-02-04T18:35:42.922Z,12.07
2023-02-04T18:38:34.311Z,11.73
2023-02-04T18:41:27.604Z,12.60
2023-02-04T18:44:04.440Z,11.10
2023-02-04T18:46:37.162Z,12.07
2023-02-04T18:49:27.050Z,12.93
2023-02-04T18:51:54.982Z,12.02
2023-02-04T18:54:37.531Z,11.60
2023-02-04T18:57:13.513Z,11.20
2023-02-04T18:59:41.323Z,11.18
2023-02-04T19:02:25.003Z,10.77
2023-02-04T19:04:55.289Z,11.05
2023-02-04T19:07:28.001Z,11.38
2023-02-04T19:09:56.616Z,10.95
2023-02-04T19:12:24.169Z,11.55
2023-02-04T19:14:51.258Z,11.23
2023-02-04T19:17:29.380Z,10.50
2023-02-04T19:20:08.571Z,11.93
2023-02-04T19:22:43.183Z,11.45
2023-02-04T19:25:30.729Z,10.63
2023-02-04T19:28:00.201Z,11.27
2023-02-04T19:30:26.750Z,11.07
2023-02-04T19:32:55.781Z,12.02
2023-02-04T19:35:24.308Z,11.77
2023-02-04T19:38:00.596Z,11.02
2023-02-04T19:40:31.926Z,11.00
2023-02-04T19:43:21.039Z,11.60
2023-02-04T19:45:50.846Z,10.38
2023-02-04T19:48:21.738Z,11.02
2023-02-04T19:50:52.858Z,10.38
2023-02-04T19:53:27.995Z,10.70
2023-02-04T19:55:55.702Z,10.88
2023-02-04T19:58:22.216Z,10.75
2023-02-04T20:01:15.685Z,10.38
2023-02-04T20:03:49.630Z,10.00
2023-02-04T20:06:22.460Z,10.77
2023-02-04T20:08:56.370Z,11.13
2023-02-04T20:11:34.983Z,11.00
2023-02-04T20:14:10.424Z,10.55
2023-02-04T20:16:47.030Z,10.70
2023-02-04T20:19:19.432Z,11.23
2023-02-04T20:22:02.282Z,10.13
2023-02-04T20:24:35.040Z,10.63
2023-02-04T20:27:19.730Z,10.63
2023-02-04T20:29:50.028Z,10.20
2023-02-04T20:32:20.262Z,9.65
2023-02-04T20:34:47.163Z,9.90
2023-02-04T20:37:26.872Z,10.70
2023-02-04T20:39:54.160Z,10.88
2023-02-04T20:42:20.619Z,10.18
2023-02-04T20:44:48.068Z,9.30
2023-02-04T20:47:21.358Z,10.93
2023-02-04T20:50:29.065Z,10.23
2023-02-04T20:53:28.286Z,11.48
2023-02-04T20:56:04.002Z,10.85
2023-02-04T20:58:38.981Z,9.85
2023-02-04T21:01:23.241Z,9.18
2023-02-04T21:03:51.266Z,10.13
2023-02-04T21:06:27.801Z,11.07
2023-02-04T21:08:57.277Z,10.07
2023-02-04T21:11:24.934Z,10.73
2023-02-04T21:13:53.023Z,9.75
2023-02-04T21:16:20.369Z,9.40
2023-02-04T21:18:47.496Z,10.02
2023-02-04T21:21:14.909Z,9.50
2023-02-04T21:23:41.503Z,9.65
2023-02-04T21:26:08.175Z,9.27
2023-02-04T21:28:34.996Z,9.57
2023-02-04T21:31:01.786Z,9.25
2023-02-04T21:33:28.521Z,9.18
2023-02-04T21:35:55.416Z,9.90
2023-02-04T21:38:21.925Z,9.82
2023-02-04T21:40:48.467Z,9.63
2023-02-04T21:43:14.993Z,9.60
2023-02-04T21:45:41.545Z,9.20
2023-02-04T21:48:08.170Z,9.38
2023-02-04T21:50:36.252Z,9.50
2023-02-04T21:53:02.809Z,9.02
2023-02-04T21:55:29.653Z,8.93
2023-02-04T21:57:56.179Z,9.45
2023-02-04T22:00:23.752Z,8.65
2023-02-04T22:02:54.230Z,9.95
2023-02-04T22:05:22.223Z,9.13
2023-02-04T22:07:49.946Z,9.50
2023-02-04T22:10:25.635Z,8.77
2023-02-04T22:12:52.301Z,8.93
2023-02-04T22:15:21.101Z,8.63
2023-02-04T22:17:48.342Z,9.38
2023-02-04T22:20:15.712Z,8.85
2023-02-04T22:22:43.725Z,10.02
2023-02-04T22:25:11.110Z,9.52
2023-02-04T22:27:37.627Z,8.90
2023-02-04T22:30:05.848Z,8.57
2023-02-04T22:32:32.452Z,9.32
2023-02-04T22:34:58.993Z,9.70
2023-02-04T22:37:25.629Z,8.65
2023-02-04T22:39:52.164Z,9.23
2023-02-04T22:42:18.728Z,9.25
2023-02-04T22:44:45.214Z,8.85
2023-02-04T22:47:12.020Z,9.93
2023-02-04T22:49:38.624Z,8.50
2023-02-04T22:52:05.895Z,10.15
2023-02-04T22:54:32.999Z,9.73
2023-02-04T22:57:00.529Z,9.07
2023-02-04T22:59:27.889Z,8.65
2023-02-04T23:01:55.865Z,10.18
2023-02-04T23:04:23.091Z,9.13
2023-02-04T23:06:50.532Z,9.10
2023-02-04T23:09:17.135Z,9.63
2023-02-04T23:11:43.630Z,9.35
2023-02-04T23:14:10.426Z,9.07
2023-02-04T23:16:37.119Z,8.48
2023-02-04T23:19:04.095Z,8.75
2023-02-04T23:21:31.186Z,8.85
2023-02-04T23:23:57.702Z,8.10
2023-02-04T23:26:24.329Z,8.80
2023-02-04T23:28:50.900Z,8.45
2023-02-04T23:31:17.781Z,8.82
2023-02-04T23:33:44.307Z,8.70
2023-02-04T23:36:11.118Z,8.45
2023-02-04T23:38:37.691Z,8.50
2023-02-04T23:41:04.337Z,8.32
2023-02-04T23:43:30.883Z,8.10
2023-02-04T23:45:57.646Z,8.48
2023-02-04T23:48:24.466Z,8.02
2023-02-04T23:50:51.570Z,8.18
2023-02-04T23:53:19.567Z,7.93
2023-02-04T23:55:46.264Z,7.45
2023-02-04T23:58:12.821Z,8.30
